This is the latest recevied weather packets stored in our database for station/object KG5MMT-12. If no packets are shown the sender has not sent any weather packets the latest 10 day(s).
| Time | Temp. | Humidity | Pressure | Rain* | Wind** | Luminosity | Snow |
|---|---|---|---|---|---|---|---|
| 1778040829 | 7.22° C | 72% | 0 hPa | 0.76 mm | - | - | - |
| 1778040529 | 7.22° C | 73% | 0 hPa | 0.76 mm | - | - | - |
| 1778040229 | 7.22° C | 75% | 0 hPa | 0.76 mm | - | - | - |
| 1778039929 | 7.22° C | 76% | 0 hPa | 0.76 mm | - | - | - |
| 1778039629 | 6.67° C | 78% | 0 hPa | 0.76 mm | - | - | - |
| 1778039329 | 6.67° C | 79% | 0 hPa | 0.51 mm | - | - | - |
| 1778039029 | 7.22° C | 80% | 0 hPa | 0.51 mm | - | - | - |
| 1778038729 | 7.22° C | 79% | 0 hPa | 0.51 mm | - | - | - |
| 1778038429 | 7.78° C | 79% | 0 hPa | 0.51 mm | - | - | - |
| 1778038129 | 8.33° C | 74% | 0 hPa | 0.25 mm | - | - | - |
| 1778037829 | 8.89° C | 65% | 0 hPa | 0 mm | - | - | - |
| 1778037529 | 9.44° C | 59% | 0 hPa | 0 mm | - | - | - |
| 1778037229 | 10° C | 58% | 0 hPa | 0 mm | - | - | - |
| 1778036929 | 10° C | 58% | 0 hPa | 0 mm | - | - | - |
| 1778036629 | 10° C | 58% | 0 hPa | 0 mm | - | - | - |
| 1778036329 | 10° C | 57% | 0 hPa | 0 mm | - | - | - |
| 1778036029 | 10° C | 58% | 0 hPa | 0 mm | - | - | - |
| 1778035729 | 9.44° C | 59% | 0 hPa | 0 mm | - | - | - |
| 1778035429 | 10° C | 60% | 0 hPa | 0 mm | - | - | - |
| 1778035129 | 10° C | 59% | 0 hPa | 0 mm | - | - | - |
| 1778034829 | 10° C | 58% | 0 hPa | 0 mm | - | - | - |
| 1778034529 | 10.56° C | 56% | 0 hPa | 0 mm | - | - | - |
| 1778034229 | 11.11° C | 55% | 0 hPa | 0 mm | - | - | - |
| 1778033929 | 11.11° C | 52% | 0 hPa | 0 mm | - | - | - |
| 1778033629 | 11.67° C | 50% | 0 hPa | 0 mm | - | - | - |
* Rain latest hour (hover to see other rain measurements)
** Current wind speed in m/s (hover to see current wind gust speed)